Heat Index [SAI AWOS/ASOS Display]_________FAA Disclaimer: "Not for use in aviation at this time______________" Untitled Document
Hamilton Municipal Airport NY (VGC)
000
05:43
17/08/17
00
N/A
N/A
30.11
N/A
1134
47(F), 8(C)
45(F), 7(C)
47 F
93%
CLR
10
N/A
N/A
N/A
05:43 zulu Wind Calm, Altimeter 30.11
METAR KVGC 170543Z AUTO 00000KT 10SM CLR 08/07 A3011 A02
METAR:
FAA Disclaimer--Advisory Use ONLY, not for flight info--
INFO:
Wind Direction:
Wind Speed:
Wind Gust:
Wind Variable:
Altimeter:
Dens Alt:
Elev:
Temp:
Dwpt:
Wind Chill
Rel Humidity:
Ceiling:
Visibility:
Prsnt Wea:
PCPN:
Remarks:
How to read the WebPage